createdAt,value
2018-05-24T00:01:25.535Z,2.93
2018-05-24T00:03:53.088Z,3.10
2018-05-24T00:06:20.633Z,3.10
2018-05-24T00:08:48.214Z,2.70
2018-05-24T00:11:15.789Z,3.30
2018-05-24T00:13:43.545Z,3.27
2018-05-24T00:16:11.143Z,3.00
2018-05-24T00:18:38.755Z,2.90
2018-05-24T00:21:06.329Z,2.83
2018-05-24T00:23:33.891Z,2.83
2018-05-24T00:26:01.453Z,3.17
2018-05-24T00:28:29.008Z,3.20
2018-05-24T00:30:56.588Z,3.20
2018-05-24T00:33:24.164Z,2.90
2018-05-24T00:35:51.707Z,2.70
2018-05-24T00:38:19.618Z,2.87
2018-05-24T00:40:47.192Z,2.93
2018-05-24T00:43:16.518Z,3.00
2018-05-24T00:45:44.114Z,3.07
2018-05-24T00:48:11.790Z,3.17
2018-05-24T00:50:39.529Z,2.87
2018-05-24T00:53:07.048Z,2.43
2018-05-24T00:55:40.447Z,2.50
2018-05-24T00:58:08.007Z,2.30
2018-05-24T01:00:35.589Z,2.20
2018-05-24T01:03:03.137Z,2.50
2018-05-24T01:05:30.917Z,2.17
2018-05-24T01:07:58.455Z,2.33
2018-05-24T01:10:26.059Z,2.30
2018-05-24T01:12:54.514Z,2.00
2018-05-24T01:15:22.080Z,2.30
2018-05-24T01:17:49.619Z,1.93
2018-05-24T01:20:17.390Z,2.30
2018-05-24T01:22:45.013Z,2.53
2018-05-24T01:25:12.570Z,2.50
2018-05-24T01:27:40.125Z,2.47
2018-05-24T01:30:07.712Z,2.70
2018-05-24T01:32:35.270Z,2.70
2018-05-24T01:35:02.841Z,2.80
2018-05-24T01:37:42.177Z,3.00
2018-05-24T01:40:09.747Z,2.73
2018-05-24T01:42:37.331Z,2.23
2018-05-24T01:45:05.828Z,2.40
2018-05-24T01:47:33.615Z,3.47
2018-05-24T01:50:01.168Z,2.50
2018-05-24T01:52:28.759Z,2.93
2018-05-24T01:54:56.390Z,2.63
2018-05-24T01:57:24.050Z,2.30
2018-05-24T01:59:51.576Z,2.83
2018-05-24T02:02:20.035Z,3.13
2018-05-24T02:04:47.592Z,3.27
2018-05-24T02:07:15.294Z,2.90
2018-05-24T02:09:42.833Z,2.97
2018-05-24T02:12:11.176Z,3.03
2018-05-24T02:14:38.724Z,3.13
2018-05-24T02:17:06.261Z,3.33
2018-05-24T02:19:33.840Z,3.40
2018-05-24T02:22:01.672Z,3.53
2018-05-24T02:24:29.159Z,3.93
2018-05-24T02:26:56.703Z,3.47
2018-05-24T02:29:24.269Z,4.00
2018-05-24T02:31:51.840Z,3.90
2018-05-24T02:34:19.388Z,3.30
2018-05-24T02:36:46.944Z,3.70
2018-05-24T02:39:14.605Z,3.40
2018-05-24T02:41:42.159Z,3.63
2018-05-24T02:44:09.734Z,3.77
2018-05-24T02:46:37.689Z,3.83
2018-05-24T02:49:05.461Z,4.23
2018-05-24T02:51:33.047Z,3.90
2018-05-24T02:54:00.588Z,4.30
2018-05-24T02:56:28.152Z,4.43
2018-05-24T02:58:55.697Z,5.17
2018-05-24T03:01:23.255Z,4.77
2018-05-24T03:03:50.825Z,4.50
2018-05-24T03:06:18.420Z,4.87
2018-05-24T03:08:46.205Z,4.40
2018-05-24T03:11:13.767Z,4.37
2018-05-24T03:13:41.531Z,3.60
2018-05-24T03:16:09.256Z,4.47
2018-05-24T03:18:36.913Z,4.30
2018-05-24T03:21:04.503Z,4.50
2018-05-24T03:23:32.036Z,5.17
2018-05-24T03:25:59.588Z,5.53
2018-05-24T03:28:27.130Z,5.60
2018-05-24T03:30:54.696Z,4.67
2018-05-24T03:33:22.239Z,5.57
2018-05-24T03:35:49.894Z,4.67
2018-05-24T03:38:17.452Z,4.50
2018-05-24T03:40:45.214Z,4.70
2018-05-24T03:43:12.886Z,5.17
2018-05-24T03:45:40.539Z,4.50
2018-05-24T03:48:08.165Z,4.53
2018-05-24T03:50:35.743Z,5.03
2018-05-24T03:53:03.484Z,4.83
2018-05-24T03:55:31.022Z,4.33
2018-05-24T03:57:58.572Z,4.37
2018-05-24T04:00:37.832Z,4.40
2018-05-24T04:03:17.055Z,5.37
2018-05-24T04:05:45.450Z,5.10
2018-05-24T04:08:12.964Z,4.87
2018-05-24T04:10:41.729Z,5.20
2018-05-24T04:13:09.295Z,4.53
2018-05-24T04:15:36.855Z,4.10
2018-05-24T04:18:04.440Z,4.33
2018-05-24T04:20:32.233Z,4.23
2018-05-24T04:23:00.563Z,4.73
2018-05-24T04:25:28.147Z,5.10
2018-05-24T04:27:55.734Z,5.07
2018-05-24T04:30:23.286Z,4.50
2018-05-24T04:32:50.865Z,4.50
2018-05-24T04:35:18.441Z,4.53
2018-05-24T04:37:46.126Z,5.20
2018-05-24T04:40:13.708Z,4.93
2018-05-24T04:42:42.077Z,5.30
2018-05-24T04:45:09.636Z,5.80
2018-05-24T04:47:37.199Z,5.47
2018-05-24T04:50:04.775Z,5.53
2018-05-24T04:52:32.347Z,5.67
2018-05-24T04:54:59.948Z,4.90
2018-05-24T04:57:28.284Z,5.27
2018-05-24T04:59:55.855Z,5.10
2018-05-24T05:02:24.171Z,5.63
2018-05-24T05:04:51.889Z,5.00
2018-05-24T05:07:20.197Z,5.07
2018-05-24T05:09:47.758Z,5.37
2018-05-24T05:12:15.319Z,5.80
2018-05-24T05:14:42.893Z,4.70
2018-05-24T05:17:10.446Z,5.20
2018-05-24T05:19:38.356Z,4.27
2018-05-24T05:22:05.909Z,4.77
2018-05-24T05:24:33.546Z,5.60
2018-05-24T05:27:01.175Z,4.40
2018-05-24T05:29:28.919Z,5.40
2018-05-24T05:31:56.491Z,4.90
2018-05-24T05:34:24.069Z,4.87
2018-05-24T05:36:51.729Z,5.90
2018-05-24T05:39:19.305Z,5.43
2018-05-24T05:41:46.958Z,5.77
2018-05-24T05:44:14.528Z,5.27
2018-05-24T05:46:42.111Z,5.20
2018-05-24T05:49:09.753Z,5.20
2018-05-24T05:51:37.316Z,6.13
2018-05-24T05:54:04.904Z,5.60
2018-05-24T05:56:32.471Z,5.40
2018-05-24T05:59:00.804Z,5.77
2018-05-24T06:01:28.382Z,5.63
2018-05-24T06:03:55.927Z,7.53
2018-05-24T06:06:23.528Z,7.83
2018-05-24T06:08:51.104Z,6.53
2018-05-24T06:11:19.429Z,7.10
2018-05-24T06:13:47.059Z,6.40
2018-05-24T06:16:14.623Z,6.27
2018-05-24T06:18:42.214Z,6.63
2018-05-24T06:21:09.777Z,6.77
2018-05-24T06:23:37.375Z,7.10
2018-05-24T06:26:04.933Z,6.47
2018-05-24T06:28:33.451Z,6.67
2018-05-24T06:31:00.859Z,6.07
2018-05-24T06:33:28.423Z,5.97
2018-05-24T06:35:56.180Z,6.60
2018-05-24T06:38:24.531Z,6.30
2018-05-24T06:40:52.101Z,7.07
2018-05-24T06:43:19.675Z,6.80
2018-05-24T06:45:49.018Z,6.23
2018-05-24T06:48:16.604Z,5.50
2018-05-24T06:50:44.192Z,4.97
2018-05-24T06:53:11.799Z,5.10
2018-05-24T06:55:39.535Z,4.60
2018-05-24T06:58:07.852Z,4.77
2018-05-24T07:00:35.515Z,4.97
2018-05-24T07:03:03.079Z,5.20
2018-05-24T07:05:30.675Z,5.40
2018-05-24T07:08:05.225Z,5.10
2018-05-24T07:10:32.813Z,4.73
2018-05-24T07:13:00.451Z,5.07
2018-05-24T07:15:28.229Z,5.43
2018-05-24T07:17:55.808Z,4.93
2018-05-24T07:20:23.397Z,5.33
2018-05-24T07:22:50.953Z,5.23
2018-05-24T07:27:39.327Z,5.20
2018-05-24T07:30:07.705Z,5.10
2018-05-24T07:32:36.127Z,5.37
2018-05-24T07:35:03.705Z,5.30
2018-05-24T07:37:32.040Z,5.03
2018-05-24T07:39:59.929Z,5.27
2018-05-24T07:42:27.526Z,5.90
2018-05-24T07:44:55.092Z,5.63
2018-05-24T07:47:22.673Z,5.50
2018-05-24T07:49:50.250Z,6.17
2018-05-24T07:52:18.616Z,6.10
2018-05-24T07:54:46.232Z,5.60
2018-05-24T07:57:13.790Z,5.50
2018-05-24T07:59:41.371Z,5.97
2018-05-24T08:02:08.974Z,6.17
2018-05-24T08:04:36.558Z,5.70
2018-05-24T08:07:04.174Z,6.57
2018-05-24T08:09:31.782Z,6.70
2018-05-24T08:11:59.363Z,5.30
2018-05-24T08:14:26.890Z,5.57
2018-05-24T08:16:54.478Z,5.80
2018-05-24T08:19:22.055Z,5.53
2018-05-24T08:21:49.674Z,5.30
2018-05-24T08:24:17.360Z,5.50
2018-05-24T08:26:44.908Z,5.77
2018-05-24T08:29:12.516Z,5.80
2018-05-24T08:31:41.332Z,5.07
2018-05-24T08:34:09.095Z,5.53
2018-05-24T08:36:36.640Z,5.13
2018-05-24T08:39:05.137Z,5.17
2018-05-24T08:41:32.716Z,4.40
2018-05-24T08:44:00.496Z,4.63
2018-05-24T08:46:28.135Z,4.73
2018-05-24T08:48:55.737Z,4.60
2018-05-24T08:51:23.283Z,4.17
2018-05-24T08:53:50.904Z,4.57
2018-05-24T08:56:18.566Z,3.83
2018-05-24T08:58:46.156Z,4.80
2018-05-24T09:01:13.783Z,4.07
2018-05-24T09:03:41.388Z,4.17
2018-05-24T09:06:08.990Z,4.00
2018-05-24T09:08:36.625Z,4.40
2018-05-24T09:11:05.003Z,4.33
2018-05-24T09:13:33.395Z,4.23
2018-05-24T09:16:01.825Z,3.90
2018-05-24T09:18:29.597Z,4.07
2018-05-24T09:20:57.335Z,4.03
2018-05-24T09:23:24.948Z,4.53
2018-05-24T09:25:52.551Z,4.63
2018-05-24T09:28:20.322Z,5.53
2018-05-24T09:30:47.906Z,4.87
2018-05-24T09:33:15.591Z,4.53
2018-05-24T09:35:43.331Z,5.17
2018-05-24T09:38:11.040Z,4.27
2018-05-24T09:40:39.382Z,4.30
2018-05-24T09:43:08.478Z,4.70
2018-05-24T09:45:36.078Z,4.70
2018-05-24T09:48:03.673Z,4.70
2018-05-24T09:50:31.216Z,4.67
2018-05-24T09:52:58.856Z,4.10
2018-05-24T09:55:26.466Z,4.57
2018-05-24T09:57:53.955Z,4.37
2018-05-24T10:00:23.223Z,4.47
2018-05-24T10:02:50.798Z,4.10
2018-05-24T10:05:18.947Z,4.07
2018-05-24T10:07:46.689Z,5.07
2018-05-24T10:10:14.294Z,5.17
2018-05-24T10:12:42.045Z,5.00
2018-05-24T10:15:09.674Z,5.13
2018-05-24T10:17:37.262Z,5.13
2018-05-24T10:20:04.859Z,5.07
2018-05-24T10:22:32.621Z,4.60
2018-05-24T10:25:01.013Z,4.23
2018-05-24T10:27:28.584Z,4.40
2018-05-24T10:29:56.934Z,4.23
2018-05-24T10:32:24.485Z,3.30
2018-05-24T10:34:52.045Z,4.53
2018-05-24T10:37:20.017Z,5.17
2018-05-24T10:39:47.621Z,4.97
2018-05-24T10:42:15.282Z,4.80
2018-05-24T10:44:42.848Z,3.80
2018-05-24T10:47:11.110Z,3.37
2018-05-24T10:49:38.885Z,3.83
2018-05-24T10:52:06.421Z,3.70
2018-05-24T10:54:34.041Z,4.10
2018-05-24T10:57:01.615Z,3.90
2018-05-24T10:59:29.358Z,4.30
2018-05-24T11:01:56.922Z,4.50
2018-05-24T11:04:24.512Z,4.43
2018-05-24T11:06:52.830Z,4.23
2018-05-24T11:09:20.469Z,4.20
2018-05-24T11:11:48.116Z,4.87
2018-05-24T11:14:15.618Z,6.03
2018-05-24T11:16:43.417Z,5.07
2018-05-24T11:19:11.083Z,5.40
2018-05-24T11:21:38.689Z,5.37
2018-05-24T11:24:06.254Z,6.30
2018-05-24T11:26:33.814Z,5.20
2018-05-24T11:29:01.410Z,5.10
2018-05-24T11:31:28.982Z,4.87
2018-05-24T11:33:57.325Z,5.30
2018-05-24T11:36:25.274Z,5.50
2018-05-24T11:38:52.834Z,4.90
2018-05-24T11:41:20.549Z,5.17
2018-05-24T11:43:48.235Z,5.10
2018-05-24T11:46:15.777Z,5.67
2018-05-24T11:48:44.339Z,4.93
2018-05-24T11:51:12.109Z,4.73
2018-05-24T11:53:39.684Z,5.03
2018-05-24T11:56:07.498Z,5.40
2018-05-24T11:58:35.281Z,5.10
2018-05-24T12:01:02.854Z,4.47
2018-05-24T12:03:30.439Z,4.57
2018-05-24T12:05:58.790Z,4.60
2018-05-24T12:08:26.699Z,4.07
2018-05-24T12:10:54.270Z,3.70
2018-05-24T12:13:21.905Z,4.43
2018-05-24T12:15:50.513Z,4.70
2018-05-24T12:18:18.184Z,5.03
2018-05-24T12:20:45.797Z,4.70
2018-05-24T12:23:13.363Z,4.93
2018-05-24T12:25:41.676Z,5.47
2018-05-24T12:28:09.265Z,6.50
2018-05-24T12:30:36.822Z,6.60
2018-05-24T12:33:04.403Z,9.13
2018-05-24T12:35:32.184Z,9.67
2018-05-24T12:37:59.678Z,10.00
2018-05-24T12:40:27.424Z,9.83
2018-05-24T12:42:55.036Z,10.70
2018-05-24T12:45:22.617Z,11.00
2018-05-24T12:47:50.529Z,10.83
2018-05-24T12:50:18.322Z,10.80
2018-05-24T12:52:45.883Z,9.83
2018-05-24T12:55:13.612Z,11.80
2018-05-24T12:57:41.192Z,11.00
2018-05-24T13:00:08.968Z,11.37
2018-05-24T13:02:36.548Z,11.67
2018-05-24T13:05:04.153Z,11.03
2018-05-24T13:07:31.737Z,12.17
2018-05-24T13:10:00.109Z,13.13
2018-05-24T13:12:27.725Z,12.30
2018-05-24T13:14:56.090Z,12.47
2018-05-24T13:17:23.687Z,12.90
2018-05-24T13:19:51.278Z,13.20
2018-05-24T13:22:18.855Z,12.80
2018-05-24T13:24:46.482Z,13.10
2018-05-24T13:27:14.068Z,14.07
2018-05-24T13:29:41.824Z,15.17
2018-05-24T13:32:09.457Z,14.30
2018-05-24T13:34:37.142Z,13.50
2018-05-24T13:37:04.751Z,13.90
2018-05-24T13:39:32.646Z,14.07
2018-05-24T13:42:00.219Z,13.70
2018-05-24T13:44:27.806Z,14.60
2018-05-24T13:46:55.591Z,14.23
2018-05-24T13:49:23.308Z,14.43
2018-05-24T13:51:51.099Z,13.53
2018-05-24T13:54:18.671Z,15.30
2018-05-24T13:56:46.276Z,14.63
2018-05-24T13:59:13.899Z,13.83
2018-05-24T14:01:41.668Z,13.13
2018-05-24T14:04:09.243Z,13.57
2018-05-24T14:09:05.946Z,14.70
2018-05-24T14:11:33.579Z,14.20
2018-05-24T14:14:01.172Z,12.60
2018-05-24T14:16:28.776Z,13.33
2018-05-24T14:18:57.235Z,14.10
2018-05-24T14:21:24.827Z,13.57
2018-05-24T14:23:52.495Z,13.63
2018-05-24T14:26:20.078Z,14.30
2018-05-24T14:28:47.689Z,14.33
2018-05-24T14:31:16.044Z,12.80
2018-05-24T14:33:44.423Z,12.60
2018-05-24T14:36:12.122Z,12.40
2018-05-24T14:38:39.829Z,12.17
2018-05-24T14:41:07.611Z,12.03
2018-05-24T14:43:35.185Z,12.70
2018-05-24T14:46:03.096Z,13.20
2018-05-24T14:48:30.660Z,12.10
2018-05-24T14:50:58.314Z,12.23
2018-05-24T14:53:26.065Z,12.70
2018-05-24T14:55:53.673Z,13.87
2018-05-24T14:58:21.305Z,12.50
2018-05-24T15:00:48.927Z,12.10
2018-05-24T15:03:21.813Z,12.03
2018-05-24T15:05:50.184Z,11.43
2018-05-24T15:08:18.583Z,12.13
2018-05-24T15:10:46.185Z,12.07
2018-05-24T15:13:25.526Z,11.63
2018-05-24T15:15:53.099Z,12.80
2018-05-24T15:18:20.779Z,11.80
2018-05-24T15:20:49.184Z,12.60
2018-05-24T15:23:16.781Z,11.73
2018-05-24T15:25:44.372Z,11.90
2018-05-24T15:28:13.038Z,12.67
2018-05-24T15:30:40.687Z,12.03
2018-05-24T15:33:08.361Z,12.20
2018-05-24T15:35:36.111Z,12.83
2018-05-24T15:38:03.739Z,11.50
2018-05-24T15:40:31.349Z,10.97
2018-05-24T15:42:58.970Z,10.90
2018-05-24T15:45:26.593Z,12.47
2018-05-24T15:47:54.187Z,11.73
2018-05-24T15:50:21.871Z,11.87
2018-05-24T15:52:49.448Z,11.73
2018-05-24T15:55:17.046Z,13.17
2018-05-24T15:57:44.653Z,12.20
2018-05-24T16:00:12.286Z,13.00
2018-05-24T16:02:39.869Z,12.20
2018-05-24T16:05:07.541Z,12.17
2018-05-24T16:07:35.318Z,13.23
2018-05-24T16:10:03.442Z,13.27
2018-05-24T16:12:31.089Z,16.30
2018-05-24T16:14:59.013Z,15.23
2018-05-24T16:17:27.427Z,15.83
2018-05-24T16:19:55.110Z,16.97
2018-05-24T16:22:22.992Z,16.17
2018-05-24T16:24:50.589Z,15.83
2018-05-24T16:27:18.505Z,17.47
2018-05-24T16:29:46.085Z,16.30
2018-05-24T16:32:13.739Z,16.70
2018-05-24T16:34:41.620Z,16.43
2018-05-24T16:37:09.252Z,16.10
2018-05-24T16:39:36.836Z,15.97
2018-05-24T16:42:04.454Z,14.87
2018-05-24T16:44:32.126Z,17.83
2018-05-24T16:46:59.919Z,16.27
2018-05-24T16:49:27.600Z,16.33
2018-05-24T16:51:55.393Z,15.67
2018-05-24T16:54:23.862Z,16.60
2018-05-24T16:56:51.497Z,16.07
2018-05-24T16:59:19.094Z,15.53
2018-05-24T17:01:46.714Z,16.10
2018-05-24T17:04:14.340Z,16.30
2018-05-24T17:06:41.949Z,16.87
2018-05-24T17:09:09.622Z,17.33
2018-05-24T17:11:37.249Z,15.57
2018-05-24T17:14:04.915Z,16.73
2018-05-24T17:16:32.565Z,16.10
2018-05-24T17:19:00.288Z,15.87
2018-05-24T17:21:28.673Z,15.30
2018-05-24T17:23:56.651Z,16.63
2018-05-24T17:26:24.231Z,16.50
2018-05-24T17:28:52.918Z,16.73
2018-05-24T17:31:20.508Z,15.97
2018-05-24T17:33:48.144Z,16.27
2018-05-24T17:36:15.728Z,15.53
2018-05-24T17:38:43.567Z,16.07
2018-05-24T17:41:11.188Z,16.30
2018-05-24T17:43:38.859Z,17.03
2018-05-24T17:46:06.679Z,17.07
2018-05-24T17:48:34.336Z,17.33
2018-05-24T17:51:02.448Z,17.73
2018-05-24T17:53:30.069Z,17.93
2018-05-24T17:55:57.723Z,17.63
2018-05-24T17:58:25.369Z,17.57
2018-05-24T18:00:52.995Z,17.07
2018-05-24T18:03:21.439Z,18.07
2018-05-24T18:05:49.029Z,19.10
2018-05-24T18:08:16.868Z,17.57
2018-05-24T18:10:44.616Z,18.60
2018-05-24T18:13:12.233Z,19.87
2018-05-24T18:15:40.014Z,19.30
2018-05-24T18:18:07.674Z,19.07
2018-05-24T18:20:35.502Z,20.77
2018-05-24T18:23:04.008Z,19.97
2018-05-24T18:25:32.585Z,19.17
2018-05-24T18:28:00.316Z,19.93
2018-05-24T18:30:27.967Z,19.77
2018-05-24T18:32:55.589Z,20.43
2018-05-24T18:35:23.190Z,20.90
2018-05-24T18:37:50.860Z,21.57
2018-05-24T18:40:20.042Z,21.10
2018-05-24T18:42:47.941Z,21.43
2018-05-24T18:45:15.634Z,21.10
2018-05-24T18:47:43.434Z,22.30
2018-05-24T18:50:11.164Z,22.47
2018-05-24T18:52:39.056Z,22.27
2018-05-24T18:55:06.810Z,22.43
2018-05-24T18:57:34.414Z,21.53
2018-05-24T19:00:02.045Z,22.23
2018-05-24T19:02:29.986Z,19.90
2018-05-24T19:04:57.817Z,19.00
2018-05-24T19:07:25.430Z,19.90
2018-05-24T19:09:53.024Z,19.07
2018-05-24T19:12:20.637Z,19.67
2018-05-24T19:14:48.228Z,18.87
2018-05-24T19:17:17.348Z,19.63
2018-05-24T19:19:45.326Z,19.57
2018-05-24T19:22:13.676Z,18.27
2018-05-24T19:24:41.486Z,17.67
2018-05-24T19:27:09.136Z,18.47
2018-05-24T19:29:37.552Z,18.10
2018-05-24T19:32:05.540Z,17.83
2018-05-24T19:34:33.324Z,16.93
2018-05-24T19:37:01.165Z,16.03
2018-05-24T19:39:28.827Z,16.43
2018-05-24T19:41:56.448Z,16.50
2018-05-24T19:44:24.929Z,16.33
2018-05-24T19:46:52.578Z,15.57
2018-05-24T19:49:20.203Z,15.70
2018-05-24T19:51:47.830Z,15.87
2018-05-24T19:54:15.480Z,16.83
2018-05-24T19:56:43.148Z,16.53
2018-05-24T19:59:10.798Z,16.10
2018-05-24T20:01:38.661Z,16.40
2018-05-24T20:04:06.296Z,15.70
2018-05-24T20:06:34.737Z,15.70
2018-05-24T20:09:02.560Z,15.63
2018-05-24T20:11:30.307Z,16.00
2018-05-24T20:13:57.946Z,15.67
2018-05-24T20:16:25.543Z,15.10
2018-05-24T20:18:53.226Z,15.20
2018-05-24T20:21:20.827Z,14.40
2018-05-24T20:23:49.198Z,15.17
2018-05-24T20:26:16.969Z,15.77
2018-05-24T20:28:44.546Z,15.50
2018-05-24T20:31:13.145Z,14.97
2018-05-24T20:33:40.894Z,14.83
2018-05-24T20:36:09.316Z,14.47
2018-05-24T20:38:37.161Z,14.77
2018-05-24T20:41:04.748Z,14.67
2018-05-24T20:43:32.381Z,13.20
2018-05-24T20:45:59.985Z,12.90
2018-05-24T20:48:28.374Z,13.57
2018-05-24T20:50:55.937Z,14.50
2018-05-24T20:53:23.727Z,14.73
2018-05-24T20:55:51.505Z,14.03
2018-05-24T20:58:19.860Z,13.93
2018-05-24T21:00:47.486Z,12.77
2018-05-24T21:03:15.119Z,13.37
2018-05-24T21:05:42.705Z,13.03
2018-05-24T21:08:10.360Z,13.27
2018-05-24T21:10:37.985Z,14.17
2018-05-24T21:13:05.603Z,13.03
2018-05-24T21:15:33.266Z,13.60
2018-05-24T21:18:00.857Z,13.43
2018-05-24T21:20:29.203Z,14.27
2018-05-24T21:22:56.778Z,14.20
2018-05-24T21:25:24.404Z,13.57
2018-05-24T21:27:52.044Z,14.03
2018-05-24T21:30:19.899Z,13.13
2018-05-24T21:32:47.457Z,14.03
2018-05-24T21:35:15.045Z,14.47
2018-05-24T21:37:42.741Z,14.23
2018-05-24T21:40:10.286Z,13.77
2018-05-24T21:42:37.908Z,13.10
2018-05-24T21:45:05.501Z,13.27
2018-05-24T21:47:33.335Z,15.23
2018-05-24T21:50:00.929Z,14.83
2018-05-24T21:52:28.500Z,15.73
2018-05-24T21:54:56.116Z,15.43
2018-05-24T21:57:23.746Z,14.53
2018-05-24T21:59:51.337Z,14.20
2018-05-24T22:02:19.099Z,15.27
2018-05-24T22:04:46.817Z,14.97
2018-05-24T22:07:14.420Z,14.57
2018-05-24T22:09:42.356Z,14.17
2018-05-24T22:12:10.709Z,14.93
2018-05-24T22:14:39.148Z,14.67
2018-05-24T22:17:06.783Z,15.10
2018-05-24T22:19:34.345Z,15.47
2018-05-24T22:22:02.153Z,13.43
2018-05-24T22:24:29.757Z,14.67
2018-05-24T22:26:58.134Z,13.97
2018-05-24T22:29:25.747Z,13.90
2018-05-24T22:31:53.331Z,13.93
2018-05-24T22:34:20.933Z,14.20
2018-05-24T22:36:48.716Z,13.27
2018-05-24T22:39:16.310Z,13.87
2018-05-24T22:41:43.924Z,13.27
2018-05-24T22:44:11.482Z,14.50
2018-05-24T22:46:39.056Z,14.17
2018-05-24T22:49:06.656Z,15.00
2018-05-24T22:51:34.307Z,13.73
2018-05-24T22:54:01.878Z,14.37
2018-05-24T22:56:29.544Z,13.80
2018-05-24T22:58:57.099Z,13.53
2018-05-24T23:01:26.220Z,12.03
2018-05-24T23:03:53.810Z,14.07
2018-05-24T23:06:21.781Z,13.67
2018-05-24T23:08:49.357Z,12.70
2018-05-24T23:11:16.959Z,13.67
2018-05-24T23:13:44.626Z,12.60
2018-05-24T23:16:13.029Z,12.47
2018-05-24T23:18:40.572Z,12.33
2018-05-24T23:21:08.207Z,12.80
2018-05-24T23:23:36.681Z,13.60
2018-05-24T23:26:04.259Z,12.60
2018-05-24T23:28:31.869Z,13.40
2018-05-24T23:30:59.445Z,13.17
2018-05-24T23:33:27.049Z,13.67
2018-05-24T23:35:54.670Z,15.27
2018-05-24T23:38:22.240Z,15.77
2018-05-24T23:40:49.813Z,15.43
2018-05-24T23:43:17.519Z,15.90
2018-05-24T23:45:45.107Z,15.03
2018-05-24T23:48:12.712Z,16.67
2018-05-24T23:50:40.440Z,16.60
2018-05-24T23:53:07.992Z,15.87
2018-05-24T23:55:35.704Z,15.80
2018-05-24T23:58:03.276Z,15.57
